sensor_id;sensor_type;location;lat;lon;timestamp;P1;durP1;ratioP1;P2;durP2;ratioP2
71975;SDS011;60680;52.182;5.398;2022-08-01T00:00:02;5.38;;;3.03;;
71975;SDS011;60680;52.182;5.398;2022-08-01T00:02:34;7.93;;;3.38;;
71975;SDS011;60680;52.182;5.398;2022-08-01T00:05:01;7.20;;;3.30;;
71975;SDS011;60680;52.182;5.398;2022-08-01T00:07:28;7.50;;;3.08;;
71975;SDS011;60680;52.182;5.398;2022-08-01T00:09:55;5.37;;;3.03;;
71975;SDS011;60680;52.182;5.398;2022-08-01T00:12:21;5.90;;;2.95;;
71975;SDS011;60680;52.182;5.398;2022-08-01T00:14:48;6.93;;;3.25;;
71975;SDS011;60680;52.182;5.398;2022-08-01T00:17:14;6.78;;;3.40;;
71975;SDS011;60680;52.182;5.398;2022-08-01T00:19:41;7.25;;;3.80;;
71975;SDS011;60680;52.182;5.398;2022-08-01T00:22:08;6.20;;;3.10;;
71975;SDS011;60680;52.182;5.398;2022-08-01T00:24:35;7.05;;;3.58;;
71975;SDS011;60680;52.182;5.398;2022-08-01T00:27:01;6.57;;;3.13;;
71975;SDS011;60680;52.182;5.398;2022-08-01T00:29:28;7.50;;;3.72;;
71975;SDS011;60680;52.182;5.398;2022-08-01T00:32:15;5.95;;;3.13;;
71975;SDS011;60680;52.182;5.398;2022-08-01T00:34:41;7.87;;;3.50;;
71975;SDS011;60680;52.182;5.398;2022-08-01T00:37:08;6.95;;;3.38;;
71975;SDS011;60680;52.182;5.398;2022-08-01T00:39:39;7.55;;;3.20;;
71975;SDS011;60680;52.182;5.398;2022-08-01T00:42:06;5.50;;;3.10;;
71975;SDS011;60680;52.182;5.398;2022-08-01T00:44:34;7.45;;;3.55;;
71975;SDS011;60680;52.182;5.398;2022-08-01T00:47:01;7.47;;;3.60;;
71975;SDS011;60680;52.182;5.398;2022-08-01T00:49:28;7.15;;;3.53;;
71975;SDS011;60680;52.182;5.398;2022-08-01T00:51:55;7.25;;;2.92;;
71975;SDS011;60680;52.182;5.398;2022-08-01T00:54:24;6.22;;;2.40;;
71975;SDS011;60680;52.182;5.398;2022-08-01T00:56:52;5.78;;;2.60;;
71975;SDS011;60680;52.182;5.398;2022-08-01T00:59:20;5.90;;;2.73;;
71975;SDS011;60680;52.182;5.398;2022-08-01T01:01:48;6.22;;;2.83;;
71975;SDS011;60680;52.182;5.398;2022-08-01T01:04:16;7.35;;;3.17;;
71975;SDS011;60680;52.182;5.398;2022-08-01T01:15:33;5.25;;;2.70;;
71975;SDS011;60680;52.182;5.398;2022-08-01T01:18:20;6.68;;;3.03;;
71975;SDS011;60680;52.182;5.398;2022-08-01T01:23:46;7.45;;;3.10;;
71975;SDS011;60680;52.182;5.398;2022-08-01T01:26:39;5.97;;;3.20;;
71975;SDS011;60680;52.182;5.398;2022-08-01T01:31:46;7.72;;;3.30;;
71975;SDS011;60680;52.182;5.398;2022-08-01T01:34:21;5.93;;;2.92;;
71975;SDS011;60680;52.182;5.398;2022-08-01T01:36:50;5.90;;;3.03;;
71975;SDS011;60680;52.182;5.398;2022-08-01T01:39:21;5.93;;;2.87;;
71975;SDS011;60680;52.182;5.398;2022-08-01T01:41:51;4.78;;;2.55;;
71975;SDS011;60680;52.182;5.398;2022-08-01T01:44:20;4.00;;;2.58;;
71975;SDS011;60680;52.182;5.398;2022-08-01T01:46:48;5.78;;;2.88;;
71975;SDS011;60680;52.182;5.398;2022-08-01T01:49:19;6.15;;;3.10;;
71975;SDS011;60680;52.182;5.398;2022-08-01T01:51:50;6.87;;;2.43;;
71975;SDS011;60680;52.182;5.398;2022-08-01T01:54:30;5.80;;;2.60;;
71975;SDS011;60680;52.182;5.398;2022-08-01T01:57:00;6.00;;;3.08;;
71975;SDS011;60680;52.182;5.398;2022-08-01T01:59:30;5.45;;;2.85;;
71975;SDS011;60680;52.182;5.398;2022-08-01T02:02:01;5.53;;;3.30;;
71975;SDS011;60680;52.182;5.398;2022-08-01T02:04:32;7.50;;;3.53;;
71975;SDS011;60680;52.182;5.398;2022-08-01T02:07:02;7.43;;;3.60;;
71975;SDS011;60680;52.182;5.398;2022-08-01T02:09:30;8.98;;;3.83;;
71975;SDS011;60680;52.182;5.398;2022-08-01T02:11:58;6.78;;;3.75;;
71975;SDS011;60680;52.182;5.398;2022-08-01T02:14:34;8.27;;;3.72;;
71975;SDS011;60680;52.182;5.398;2022-08-01T02:17:02;6.80;;;3.60;;
71975;SDS011;60680;52.182;5.398;2022-08-01T02:19:30;7.13;;;3.58;;
71975;SDS011;60680;52.182;5.398;2022-08-01T02:22:10;6.22;;;3.20;;
71975;SDS011;60680;52.182;5.398;2022-08-01T02:24:50;6.00;;;3.22;;
71975;SDS011;60680;52.182;5.398;2022-08-01T02:27:23;7.55;;;3.30;;
71975;SDS011;60680;52.182;5.398;2022-08-01T02:32:23;6.38;;;3.38;;
71975;SDS011;60680;52.182;5.398;2022-08-01T02:34:53;6.65;;;3.53;;
71975;SDS011;60680;52.182;5.398;2022-08-01T02:37:23;5.53;;;3.42;;
71975;SDS011;60680;52.182;5.398;2022-08-01T02:39:52;7.10;;;3.90;;
71975;SDS011;60680;52.182;5.398;2022-08-01T02:42:20;8.53;;;4.17;;
71975;SDS011;60680;52.182;5.398;2022-08-01T02:44:51;6.50;;;3.67;;
71975;SDS011;60680;52.182;5.398;2022-08-01T02:47:20;7.47;;;3.70;;
71975;SDS011;60680;52.182;5.398;2022-08-01T02:49:50;8.50;;;4.20;;
71975;SDS011;60680;52.182;5.398;2022-08-01T02:52:19;7.05;;;3.08;;
71975;SDS011;60680;52.182;5.398;2022-08-01T02:54:48;5.53;;;3.30;;
71975;SDS011;60680;52.182;5.398;2022-08-01T02:57:17;5.25;;;3.35;;
71975;SDS011;60680;52.182;5.398;2022-08-01T02:59:47;7.18;;;3.40;;
71975;SDS011;60680;52.182;5.398;2022-08-01T03:02:16;8.18;;;3.80;;
71975;SDS011;60680;52.182;5.398;2022-08-01T03:04:44;8.27;;;3.35;;
71975;SDS011;60680;52.182;5.398;2022-08-01T03:07:12;6.10;;;3.57;;
71975;SDS011;60680;52.182;5.398;2022-08-01T03:09:40;5.60;;;3.47;;
71975;SDS011;60680;52.182;5.398;2022-08-01T03:12:20;6.13;;;3.10;;
71975;SDS011;60680;52.182;5.398;2022-08-01T03:14:51;9.50;;;3.45;;
71975;SDS011;60680;52.182;5.398;2022-08-01T03:17:22;7.55;;;3.92;;
71975;SDS011;60680;52.182;5.398;2022-08-01T03:19:52;5.83;;;3.37;;
71975;SDS011;60680;52.182;5.398;2022-08-01T03:22:21;7.57;;;3.60;;
71975;SDS011;60680;52.182;5.398;2022-08-01T03:24:50;6.85;;;3.78;;
71975;SDS011;60680;52.182;5.398;2022-08-01T03:27:19;6.97;;;3.90;;
71975;SDS011;60680;52.182;5.398;2022-08-01T03:29:48;8.35;;;3.53;;
71975;SDS011;60680;52.182;5.398;2022-08-01T03:32:18;7.17;;;3.80;;
71975;SDS011;60680;52.182;5.398;2022-08-01T03:34:45;7.85;;;3.67;;
71975;SDS011;60680;52.182;5.398;2022-08-01T03:37:21;8.93;;;3.97;;
71975;SDS011;60680;52.182;5.398;2022-08-01T03:39:55;7.43;;;4.03;;
71975;SDS011;60680;52.182;5.398;2022-08-01T03:42:28;9.68;;;4.20;;
71975;SDS011;60680;52.182;5.398;2022-08-01T03:45:04;5.80;;;3.70;;
71975;SDS011;60680;52.182;5.398;2022-08-01T03:47:38;8.98;;;3.83;;
71975;SDS011;60680;52.182;5.398;2022-08-01T03:50:10;8.23;;;3.67;;
71975;SDS011;60680;52.182;5.398;2022-08-01T03:52:39;7.03;;;3.88;;
71975;SDS011;60680;52.182;5.398;2022-08-01T03:55:09;6.35;;;3.58;;
71975;SDS011;60680;52.182;5.398;2022-08-01T03:57:38;8.87;;;3.83;;
71975;SDS011;60680;52.182;5.398;2022-08-01T04:00:06;6.50;;;3.80;;
71975;SDS011;60680;52.182;5.398;2022-08-01T04:02:35;7.80;;;3.78;;
71975;SDS011;60680;52.182;5.398;2022-08-01T04:05:03;7.18;;;3.90;;
71975;SDS011;60680;52.182;5.398;2022-08-01T04:07:31;9.77;;;3.60;;
71975;SDS011;60680;52.182;5.398;2022-08-01T04:09:58;6.87;;;3.70;;
71975;SDS011;60680;52.182;5.398;2022-08-01T04:12:25;6.80;;;3.70;;
71975;SDS011;60680;52.182;5.398;2022-08-01T04:14:51;10.88;;;3.70;;
71975;SDS011;60680;52.182;5.398;2022-08-01T04:17:18;7.22;;;3.65;;
71975;SDS011;60680;52.182;5.398;2022-08-01T04:19:45;7.88;;;3.70;;
71975;SDS011;60680;52.182;5.398;2022-08-01T04:22:13;6.63;;;3.53;;
71975;SDS011;60680;52.182;5.398;2022-08-01T04:24:41;6.15;;;2.80;;
71975;SDS011;60680;52.182;5.398;2022-08-01T04:27:14;6.03;;;2.20;;
71975;SDS011;60680;52.182;5.398;2022-08-01T04:30:06;3.38;;;1.70;;
71975;SDS011;60680;52.182;5.398;2022-08-01T04:32:34;2.40;;;1.45;;
71975;SDS011;60680;52.182;5.398;2022-08-01T04:35:07;3.10;;;1.67;;
71975;SDS011;60680;52.182;5.398;2022-08-01T04:37:58;3.10;;;1.77;;
71975;SDS011;60680;52.182;5.398;2022-08-01T04:40:28;4.18;;;1.30;;
71975;SDS011;60680;52.182;5.398;2022-08-01T04:42:55;3.25;;;1.50;;
71975;SDS011;60680;52.182;5.398;2022-08-01T04:45:22;4.90;;;1.67;;
71975;SDS011;60680;52.182;5.398;2022-08-01T04:47:49;2.57;;;1.00;;
71975;SDS011;60680;52.182;5.398;2022-08-01T04:50:18;1.70;;;0.90;;
71975;SDS011;60680;52.182;5.398;2022-08-01T04:52:47;3.65;;;0.93;;
71975;SDS011;60680;52.182;5.398;2022-08-01T04:55:15;1.88;;;0.80;;
71975;SDS011;60680;52.182;5.398;2022-08-01T04:57:44;1.08;;;0.60;;
71975;SDS011;60680;52.182;5.398;2022-08-01T05:00:13;4.77;;;0.87;;
71975;SDS011;60680;52.182;5.398;2022-08-01T05:02:40;3.33;;;0.90;;
71975;SDS011;60680;52.182;5.398;2022-08-01T05:05:07;1.00;;;0.70;;
71975;SDS011;60680;52.182;5.398;2022-08-01T05:07:34;1.80;;;0.90;;
71975;SDS011;60680;52.182;5.398;2022-08-01T05:10:11;1.50;;;0.60;;
71975;SDS011;60680;52.182;5.398;2022-08-01T05:12:38;2.37;;;0.97;;
71975;SDS011;60680;52.182;5.398;2022-08-01T05:15:05;1.95;;;1.02;;
71975;SDS011;60680;52.182;5.398;2022-08-01T05:17:39;3.17;;;1.00;;
71975;SDS011;60680;52.182;5.398;2022-08-01T05:20:08;2.03;;;0.93;;
71975;SDS011;60680;52.182;5.398;2022-08-01T05:22:36;5.13;;;1.00;;
71975;SDS011;60680;52.182;5.398;2022-08-01T05:25:04;1.87;;;0.83;;
71975;SDS011;60680;52.182;5.398;2022-08-01T05:27:31;1.80;;;0.80;;
71975;SDS011;60680;52.182;5.398;2022-08-01T05:29:59;2.50;;;1.10;;
71975;SDS011;60680;52.182;5.398;2022-08-01T05:32:25;1.52;;;0.80;;
71975;SDS011;60680;52.182;5.398;2022-08-01T05:34:53;2.75;;;1.30;;
71975;SDS011;60680;52.182;5.398;2022-08-01T05:37:20;2.60;;;1.10;;
71975;SDS011;60680;52.182;5.398;2022-08-01T05:39:46;2.58;;;1.20;;
71975;SDS011;60680;52.182;5.398;2022-08-01T05:42:13;1.65;;;0.93;;
71975;SDS011;60680;52.182;5.398;2022-08-01T05:44:40;3.28;;;1.10;;
71975;SDS011;60680;52.182;5.398;2022-08-01T05:47:06;2.72;;;1.42;;
71975;SDS011;60680;52.182;5.398;2022-08-01T05:49:33;1.90;;;1.00;;
71975;SDS011;60680;52.182;5.398;2022-08-01T05:52:00;4.00;;;1.20;;
71975;SDS011;60680;52.182;5.398;2022-08-01T05:54:28;2.65;;;1.00;;
71975;SDS011;60680;52.182;5.398;2022-08-01T05:56:55;3.15;;;0.90;;
71975;SDS011;60680;52.182;5.398;2022-08-01T05:59:25;2.55;;;1.02;;
71975;SDS011;60680;52.182;5.398;2022-08-01T06:01:52;2.20;;;1.17;;
71975;SDS011;60680;52.182;5.398;2022-08-01T06:04:19;2.58;;;0.85;;
71975;SDS011;60680;52.182;5.398;2022-08-01T06:06:46;3.83;;;0.95;;
71975;SDS011;60680;52.182;5.398;2022-08-01T06:09:12;2.83;;;1.30;;
71975;SDS011;60680;52.182;5.398;2022-08-01T06:11:39;1.95;;;1.13;;
71975;SDS011;60680;52.182;5.398;2022-08-01T06:14:06;4.90;;;1.10;;
71975;SDS011;60680;52.182;5.398;2022-08-01T06:16:32;3.22;;;1.17;;
71975;SDS011;60680;52.182;5.398;2022-08-01T06:18:59;2.72;;;1.30;;
71975;SDS011;60680;52.182;5.398;2022-08-01T06:21:25;2.20;;;1.13;;
71975;SDS011;60680;52.182;5.398;2022-08-01T06:23:52;2.88;;;1.58;;
71975;SDS011;60680;52.182;5.398;2022-08-01T06:26:19;4.17;;;1.70;;
71975;SDS011;60680;52.182;5.398;2022-08-01T06:28:46;2.83;;;1.60;;
71975;SDS011;60680;52.182;5.398;2022-08-01T06:31:13;2.53;;;1.45;;
71975;SDS011;60680;52.182;5.398;2022-08-01T06:33:40;4.35;;;1.75;;
71975;SDS011;60680;52.182;5.398;2022-08-01T06:36:07;2.75;;;1.60;;
71975;SDS011;60680;52.182;5.398;2022-08-01T06:38:35;3.87;;;2.20;;
71975;SDS011;60680;52.182;5.398;2022-08-01T06:41:02;3.97;;;2.00;;
71975;SDS011;60680;52.182;5.398;2022-08-01T06:43:29;4.65;;;2.20;;
71975;SDS011;60680;52.182;5.398;2022-08-01T06:45:55;4.97;;;1.55;;
71975;SDS011;60680;52.182;5.398;2022-08-01T06:48:22;3.38;;;1.73;;
71975;SDS011;60680;52.182;5.398;2022-08-01T06:50:49;3.50;;;1.80;;
71975;SDS011;60680;52.182;5.398;2022-08-01T06:53:35;3.55;;;1.67;;
71975;SDS011;60680;52.182;5.398;2022-08-01T06:56:02;2.63;;;1.33;;
71975;SDS011;60680;52.182;5.398;2022-08-01T06:58:29;3.25;;;1.88;;
71975;SDS011;60680;52.182;5.398;2022-08-01T07:00:57;4.22;;;1.80;;
71975;SDS011;60680;52.182;5.398;2022-08-01T07:03:25;2.40;;;1.63;;
71975;SDS011;60680;52.182;5.398;2022-08-01T07:06:11;2.75;;;1.65;;
71975;SDS011;60680;52.182;5.398;2022-08-01T07:08:40;2.70;;;1.63;;
71975;SDS011;60680;52.182;5.398;2022-08-01T07:11:06;3.85;;;2.00;;
71975;SDS011;60680;52.182;5.398;2022-08-01T07:13:33;3.15;;;2.05;;
71975;SDS011;60680;52.182;5.398;2022-08-01T07:16:09;5.50;;;2.20;;
71975;SDS011;60680;52.182;5.398;2022-08-01T07:18:36;4.55;;;2.33;;
71975;SDS011;60680;52.182;5.398;2022-08-01T07:21:02;5.45;;;2.28;;
71975;SDS011;60680;52.182;5.398;2022-08-01T07:23:30;4.80;;;2.63;;
71975;SDS011;60680;52.182;5.398;2022-08-01T07:26:02;9.02;;;2.40;;
71975;SDS011;60680;52.182;5.398;2022-08-01T07:28:30;7.03;;;2.90;;
71975;SDS011;60680;52.182;5.398;2022-08-01T07:30:57;13.07;;;1.85;;
71975;SDS011;60680;52.182;5.398;2022-08-01T07:33:23;11.50;;;2.35;;
71975;SDS011;60680;52.182;5.398;2022-08-01T07:35:50;12.60;;;1.83;;
71975;SDS011;60680;52.182;5.398;2022-08-01T07:38:16;10.32;;;2.72;;
71975;SDS011;60680;52.182;5.398;2022-08-01T07:40:44;13.47;;;2.10;;
71975;SDS011;60680;52.182;5.398;2022-08-01T07:43:10;9.32;;;2.22;;
71975;SDS011;60680;52.182;5.398;2022-08-01T07:45:37;14.32;;;2.25;;
71975;SDS011;60680;52.182;5.398;2022-08-01T07:48:10;10.63;;;2.13;;
71975;SDS011;60680;52.182;5.398;2022-08-01T07:50:37;12.18;;;2.40;;
71975;SDS011;60680;52.182;5.398;2022-08-01T07:53:03;21.70;;;2.83;;
71975;SDS011;60680;52.182;5.398;2022-08-01T07:55:30;10.82;;;2.45;;
71975;SDS011;60680;52.182;5.398;2022-08-01T07:57:57;14.98;;;2.80;;
71975;SDS011;60680;52.182;5.398;2022-08-01T08:00:24;16.25;;;2.47;;
71975;SDS011;60680;52.182;5.398;2022-08-01T08:02:50;10.32;;;2.22;;
71975;SDS011;60680;52.182;5.398;2022-08-01T08:05:17;11.53;;;2.90;;
71975;SDS011;60680;52.182;5.398;2022-08-01T08:08:04;11.02;;;2.50;;
71975;SDS011;60680;52.182;5.398;2022-08-01T08:10:32;11.57;;;2.30;;
71975;SDS011;60680;52.182;5.398;2022-08-01T08:12:59;15.13;;;2.25;;
71975;SDS011;60680;52.182;5.398;2022-08-01T08:15:27;15.45;;;2.60;;
71975;SDS011;60680;52.182;5.398;2022-08-01T08:17:55;6.23;;;2.10;;
71975;SDS011;60680;52.182;5.398;2022-08-01T08:20:22;8.75;;;2.28;;
71975;SDS011;60680;52.182;5.398;2022-08-01T08:22:51;6.57;;;2.30;;
71975;SDS011;60680;52.182;5.398;2022-08-01T08:25:18;6.60;;;2.50;;
71975;SDS011;60680;52.182;5.398;2022-08-01T08:27:45;9.55;;;2.40;;
71975;SDS011;60680;52.182;5.398;2022-08-01T08:30:13;8.23;;;2.40;;
71975;SDS011;60680;52.182;5.398;2022-08-01T08:32:40;7.78;;;2.13;;
71975;SDS011;60680;52.182;5.398;2022-08-01T08:35:08;6.25;;;2.00;;
71975;SDS011;60680;52.182;5.398;2022-08-01T08:37:37;11.10;;;2.17;;
71975;SDS011;60680;52.182;5.398;2022-08-01T08:40:13;5.22;;;1.80;;
71975;SDS011;60680;52.182;5.398;2022-08-01T08:42:40;10.53;;;1.90;;
71975;SDS011;60680;52.182;5.398;2022-08-01T08:45:08;11.05;;;1.80;;
71975;SDS011;60680;52.182;5.398;2022-08-01T08:47:37;7.88;;;1.92;;
71975;SDS011;60680;52.182;5.398;2022-08-01T08:50:06;6.45;;;1.80;;
71975;SDS011;60680;52.182;5.398;2022-08-01T08:52:33;5.57;;;1.60;;
71975;SDS011;60680;52.182;5.398;2022-08-01T08:55:03;4.37;;;1.70;;
71975;SDS011;60680;52.182;5.398;2022-08-01T08:57:30;10.55;;;1.52;;
71975;SDS011;60680;52.182;5.398;2022-08-01T08:59:57;4.07;;;2.00;;
71975;SDS011;60680;52.182;5.398;2022-08-01T09:02:24;7.35;;;1.70;;
71975;SDS011;60680;52.182;5.398;2022-08-01T09:04:51;7.65;;;1.63;;
71975;SDS011;60680;52.182;5.398;2022-08-01T09:07:18;5.87;;;1.37;;
71975;SDS011;60680;52.182;5.398;2022-08-01T09:09:45;7.85;;;1.45;;
71975;SDS011;60680;52.182;5.398;2022-08-01T09:12:18;7.28;;;1.20;;
71975;SDS011;60680;52.182;5.398;2022-08-01T09:14:46;6.53;;;1.48;;
71975;SDS011;60680;52.182;5.398;2022-08-01T09:17:16;5.95;;;1.08;;
71975;SDS011;60680;52.182;5.398;2022-08-01T09:19:48;7.07;;;1.27;;
71975;SDS011;60680;52.182;5.398;2022-08-01T09:22:21;6.25;;;1.33;;
71975;SDS011;60680;52.182;5.398;2022-08-01T09:25:07;8.18;;;1.30;;
71975;SDS011;60680;52.182;5.398;2022-08-01T09:27:36;6.85;;;1.00;;
71975;SDS011;60680;52.182;5.398;2022-08-01T09:30:12;6.82;;;1.02;;
71975;SDS011;60680;52.182;5.398;2022-08-01T09:32:58;5.10;;;1.00;;
71975;SDS011;60680;52.182;5.398;2022-08-01T09:35:36;5.07;;;0.90;;
71975;SDS011;60680;52.182;5.398;2022-08-01T09:40:59;3.83;;;0.70;;
71975;SDS011;60680;52.182;5.398;2022-08-01T09:43:28;3.47;;;1.00;;
71975;SDS011;60680;52.182;5.398;2022-08-01T09:45:57;2.30;;;0.60;;
71975;SDS011;60680;52.182;5.398;2022-08-01T09:48:24;4.13;;;0.70;;
71975;SDS011;60680;52.182;5.398;2022-08-01T09:50:55;4.30;;;0.40;;
71975;SDS011;60680;52.182;5.398;2022-08-01T09:53:43;3.45;;;0.80;;
71975;SDS011;60680;52.182;5.398;2022-08-01T09:56:19;3.00;;;0.70;;
71975;SDS011;60680;52.182;5.398;2022-08-01T10:01:25;2.80;;;0.70;;
71975;SDS011;60680;52.182;5.398;2022-08-01T10:04:21;6.38;;;1.05;;
71975;SDS011;60680;52.182;5.398;2022-08-01T10:06:51;6.95;;;1.05;;
71975;SDS011;60680;52.182;5.398;2022-08-01T10:09:30;6.85;;;0.95;;
71975;SDS011;60680;52.182;5.398;2022-08-01T10:12:06;4.67;;;0.60;;
71975;SDS011;60680;52.182;5.398;2022-08-01T10:14:41;5.88;;;0.70;;
71975;SDS011;60680;52.182;5.398;2022-08-01T10:17:15;2.40;;;0.65;;
71975;SDS011;60680;52.182;5.398;2022-08-01T10:19:45;3.85;;;0.75;;
71975;SDS011;60680;52.182;5.398;2022-08-01T10:22:16;3.45;;;0.70;;
71975;SDS011;60680;52.182;5.398;2022-08-01T10:24:45;3.60;;;0.87;;
71975;SDS011;60680;52.182;5.398;2022-08-01T10:27:14;4.80;;;0.80;;
71975;SDS011;60680;52.182;5.398;2022-08-01T10:30:03;6.90;;;0.80;;
71975;SDS011;60680;52.182;5.398;2022-08-01T10:32:44;6.25;;;1.00;;
71975;SDS011;60680;52.182;5.398;2022-08-01T10:35:16;4.68;;;1.40;;
71975;SDS011;60680;52.182;5.398;2022-08-01T10:38:04;8.33;;;2.37;;
71975;SDS011;60680;52.182;5.398;2022-08-01T10:40:31;4.13;;;1.40;;
71975;SDS011;60680;52.182;5.398;2022-08-01T10:43:00;6.30;;;1.02;;
71975;SDS011;60680;52.182;5.398;2022-08-01T10:45:27;5.80;;;1.67;;
71975;SDS011;60680;52.182;5.398;2022-08-01T10:48:04;5.63;;;1.60;;
71975;SDS011;60680;52.182;5.398;2022-08-01T10:53:14;5.38;;;1.20;;
71975;SDS011;60680;52.182;5.398;2022-08-01T10:55:57;6.28;;;0.90;;
71975;SDS011;60680;52.182;5.398;2022-08-01T10:58:35;5.90;;;1.30;;
71975;SDS011;60680;52.182;5.398;2022-08-01T11:01:22;4.35;;;1.20;;
71975;SDS011;60680;52.182;5.398;2022-08-01T11:09:00;5.70;;;1.30;;
71975;SDS011;60680;52.182;5.398;2022-08-01T11:11:30;7.68;;;1.10;;
71975;SDS011;60680;52.182;5.398;2022-08-01T11:14:03;8.82;;;1.60;;
71975;SDS011;60680;52.182;5.398;2022-08-01T11:16:39;7.00;;;1.10;;
71975;SDS011;60680;52.182;5.398;2022-08-01T11:19:07;4.85;;;1.20;;
71975;SDS011;60680;52.182;5.398;2022-08-01T11:35:37;2.97;;;0.70;;
71975;SDS011;60680;52.182;5.398;2022-08-01T11:38:24;5.20;;;0.90;;
71975;SDS011;60680;52.182;5.398;2022-08-01T11:41:13;4.63;;;1.02;;
71975;SDS011;60680;52.182;5.398;2022-08-01T11:44:03;7.33;;;1.50;;
71975;SDS011;60680;52.182;5.398;2022-08-01T11:54:39;2.45;;;0.65;;
71975;SDS011;60680;52.182;5.398;2022-08-01T11:57:08;4.17;;;0.60;;
71975;SDS011;60680;52.182;5.398;2022-08-01T11:59:41;2.78;;;0.88;;
71975;SDS011;60680;52.182;5.398;2022-08-01T12:02:32;3.50;;;0.63;;
71975;SDS011;60680;52.182;5.398;2022-08-01T12:07:40;2.30;;;0.45;;
71975;SDS011;60680;52.182;5.398;2022-08-01T12:10:12;2.63;;;0.73;;
71975;SDS011;60680;52.182;5.398;2022-08-01T12:12:43;2.28;;;0.93;;
71975;SDS011;60680;52.182;5.398;2022-08-01T12:15:14;4.28;;;0.65;;
71975;SDS011;60680;52.182;5.398;2022-08-01T12:17:43;2.70;;;0.70;;
71975;SDS011;60680;52.182;5.398;2022-08-01T12:20:28;1.85;;;0.90;;
71975;SDS011;60680;52.182;5.398;2022-08-01T12:22:58;3.60;;;0.87;;
71975;SDS011;60680;52.182;5.398;2022-08-01T12:25:33;3.55;;;0.55;;
71975;SDS011;60680;52.182;5.398;2022-08-01T12:28:06;3.88;;;0.60;;
71975;SDS011;60680;52.182;5.398;2022-08-01T12:30:35;4.05;;;1.00;;
71975;SDS011;60680;52.182;5.398;2022-08-01T12:33:03;2.38;;;0.47;;
71975;SDS011;60680;52.182;5.398;2022-08-01T12:35:31;1.93;;;0.70;;
71975;SDS011;60680;52.182;5.398;2022-08-01T12:38:04;4.88;;;0.80;;
71975;SDS011;60680;52.182;5.398;2022-08-01T12:40:43;3.95;;;0.80;;
71975;SDS011;60680;52.182;5.398;2022-08-01T12:43:17;2.70;;;0.70;;
71975;SDS011;60680;52.182;5.398;2022-08-01T12:45:54;4.63;;;0.50;;
71975;SDS011;60680;52.182;5.398;2022-08-01T12:48:22;3.70;;;0.67;;
71975;SDS011;60680;52.182;5.398;2022-08-01T12:50:51;6.22;;;1.63;;
71975;SDS011;60680;52.182;5.398;2022-08-01T12:53:19;2.25;;;0.50;;
71975;SDS011;60680;52.182;5.398;2022-08-01T12:55:51;1.55;;;0.52;;
71975;SDS011;60680;52.182;5.398;2022-08-01T12:58:29;0.77;;;0.40;;
71975;SDS011;60680;52.182;5.398;2022-08-01T13:01:05;2.40;;;0.30;;
71975;SDS011;60680;52.182;5.398;2022-08-01T13:03:37;1.85;;;0.38;;
71975;SDS011;60680;52.182;5.398;2022-08-01T13:06:14;1.60;;;0.35;;
71975;SDS011;60680;52.182;5.398;2022-08-01T13:08:43;5.55;;;0.50;;
71975;SDS011;60680;52.182;5.398;2022-08-01T13:11:11;2.50;;;0.70;;
71975;SDS011;60680;52.182;5.398;2022-08-01T13:13:42;3.53;;;0.60;;
71975;SDS011;60680;52.182;5.398;2022-08-01T13:16:10;4.15;;;0.80;;
71975;SDS011;60680;52.182;5.398;2022-08-01T13:18:57;2.90;;;0.50;;
71975;SDS011;60680;52.182;5.398;2022-08-01T13:21:28;2.65;;;0.60;;
71975;SDS011;60680;52.182;5.398;2022-08-01T13:24:15;1.42;;;0.52;;
71975;SDS011;60680;52.182;5.398;2022-08-01T13:26:43;3.47;;;0.80;;
71975;SDS011;60680;52.182;5.398;2022-08-01T13:29:11;1.30;;;0.40;;
71975;SDS011;60680;52.182;5.398;2022-08-01T13:31:39;1.98;;;0.50;;
71975;SDS011;60680;52.182;5.398;2022-08-01T13:34:07;2.17;;;0.40;;
71975;SDS011;60680;52.182;5.398;2022-08-01T13:36:34;1.05;;;0.30;;
71975;SDS011;60680;52.182;5.398;2022-08-01T13:39:02;1.13;;;0.50;;
71975;SDS011;60680;52.182;5.398;2022-08-01T13:41:48;1.48;;;0.38;;
71975;SDS011;60680;52.182;5.398;2022-08-01T13:44:14;2.33;;;0.70;;
71975;SDS011;60680;52.182;5.398;2022-08-01T13:46:42;0.63;;;0.40;;
71975;SDS011;60680;52.182;5.398;2022-08-01T13:49:16;2.30;;;0.50;;
71975;SDS011;60680;52.182;5.398;2022-08-01T13:51:44;3.93;;;0.60;;
71975;SDS011;60680;52.182;5.398;2022-08-01T13:54:12;2.08;;;0.50;;
71975;SDS011;60680;52.182;5.398;2022-08-01T13:56:38;1.33;;;0.52;;
71975;SDS011;60680;52.182;5.398;2022-08-01T13:59:05;1.95;;;0.40;;
71975;SDS011;60680;52.182;5.398;2022-08-01T14:01:32;2.40;;;0.40;;
71975;SDS011;60680;52.182;5.398;2022-08-01T14:04:02;3.13;;;0.50;;
71975;SDS011;60680;52.182;5.398;2022-08-01T14:06:30;1.83;;;0.50;;
71975;SDS011;60680;52.182;5.398;2022-08-01T14:08:57;3.00;;;0.52;;
71975;SDS011;60680;52.182;5.398;2022-08-01T14:11:27;1.98;;;0.40;;
71975;SDS011;60680;52.182;5.398;2022-08-01T14:14:02;2.45;;;0.50;;
71975;SDS011;60680;52.182;5.398;2022-08-01T14:16:33;4.67;;;0.40;;
71975;SDS011;60680;52.182;5.398;2022-08-01T14:19:01;2.03;;;0.40;;
71975;SDS011;60680;52.182;5.398;2022-08-01T14:21:29;1.35;;;0.30;;
71975;SDS011;60680;52.182;5.398;2022-08-01T14:23:55;1.15;;;0.40;;
71975;SDS011;60680;52.182;5.398;2022-08-01T14:26:22;3.08;;;0.50;;
71975;SDS011;60680;52.182;5.398;2022-08-01T14:28:48;2.77;;;0.40;;
71975;SDS011;60680;52.182;5.398;2022-08-01T14:31:15;3.40;;;0.38;;
71975;SDS011;60680;52.182;5.398;2022-08-01T14:33:41;3.30;;;0.40;;
71975;SDS011;60680;52.182;5.398;2022-08-01T14:36:08;2.65;;;0.40;;
71975;SDS011;60680;52.182;5.398;2022-08-01T14:38:54;2.95;;;0.88;;
71975;SDS011;60680;52.182;5.398;2022-08-01T14:41:26;2.33;;;0.43;;
71975;SDS011;60680;52.182;5.398;2022-08-01T14:43:53;3.67;;;0.52;;
71975;SDS011;60680;52.182;5.398;2022-08-01T14:46:19;6.65;;;2.17;;
71975;SDS011;60680;52.182;5.398;2022-08-01T14:48:46;2.10;;;0.40;;
71975;SDS011;60680;52.182;5.398;2022-08-01T14:51:12;3.80;;;1.02;;
71975;SDS011;60680;52.182;5.398;2022-08-01T14:53:39;2.93;;;0.50;;
71975;SDS011;60680;52.182;5.398;2022-08-01T14:56:18;3.72;;;0.60;;
71975;SDS011;60680;52.182;5.398;2022-08-01T14:58:45;2.28;;;0.50;;
71975;SDS011;60680;52.182;5.398;2022-08-01T15:01:13;2.00;;;0.45;;
71975;SDS011;60680;52.182;5.398;2022-08-01T15:03:40;1.88;;;0.40;;
71975;SDS011;60680;52.182;5.398;2022-08-01T15:06:07;4.17;;;0.53;;
71975;SDS011;60680;52.182;5.398;2022-08-01T15:08:35;2.65;;;1.52;;
71975;SDS011;60680;52.182;5.398;2022-08-01T15:11:02;1.42;;;0.30;;
71975;SDS011;60680;52.182;5.398;2022-08-01T15:13:28;0.95;;;0.30;;
71975;SDS011;60680;52.182;5.398;2022-08-01T15:15:55;1.00;;;0.35;;
71975;SDS011;60680;52.182;5.398;2022-08-01T15:18:26;0.57;;;0.30;;
71975;SDS011;60680;52.182;5.398;2022-08-01T15:20:53;3.03;;;0.50;;
71975;SDS011;60680;52.182;5.398;2022-08-01T15:23:21;2.35;;;0.40;;
71975;SDS011;60680;52.182;5.398;2022-08-01T15:25:48;2.35;;;0.43;;
71975;SDS011;60680;52.182;5.398;2022-08-01T15:28:15;1.33;;;0.40;;
71975;SDS011;60680;52.182;5.398;2022-08-01T15:30:42;3.83;;;0.40;;
71975;SDS011;60680;52.182;5.398;2022-08-01T15:33:08;2.33;;;0.40;;
71975;SDS011;60680;52.182;5.398;2022-08-01T15:35:35;1.52;;;0.50;;
71975;SDS011;60680;52.182;5.398;2022-08-01T15:38:02;3.08;;;0.50;;
71975;SDS011;60680;52.182;5.398;2022-08-01T15:40:28;2.30;;;0.77;;
71975;SDS011;60680;52.182;5.398;2022-08-01T15:42:55;2.00;;;0.50;;
71975;SDS011;60680;52.182;5.398;2022-08-01T15:45:22;2.30;;;0.70;;
71975;SDS011;60680;52.182;5.398;2022-08-01T15:48:09;3.22;;;0.68;;
71975;SDS011;60680;52.182;5.398;2022-08-01T15:50:35;1.30;;;0.50;;
71975;SDS011;60680;52.182;5.398;2022-08-01T15:53:04;0.95;;;0.50;;
71975;SDS011;60680;52.182;5.398;2022-08-01T15:55:34;1.07;;;0.40;;
71975;SDS011;60680;52.182;5.398;2022-08-01T15:58:03;1.10;;;0.40;;
71975;SDS011;60680;52.182;5.398;2022-08-01T16:00:31;0.85;;;0.35;;